createdAt,value
2023-04-15T00:01:19.268Z,11.62
2023-04-15T00:03:47.448Z,11.62
2023-04-15T00:06:14.556Z,11.21
2023-04-15T00:08:41.857Z,11.16
2023-04-15T00:11:08.436Z,11.24
2023-04-15T00:13:35.079Z,11.18
2023-04-15T00:16:02.201Z,11.46
2023-04-15T00:18:32.125Z,11.11
2023-04-15T00:20:59.377Z,11.69
2023-04-15T00:23:26.699Z,11.96
2023-04-15T00:25:53.279Z,11.78
2023-04-15T00:28:19.995Z,11.70
2023-04-15T00:30:47.238Z,12.08
2023-04-15T00:33:14.539Z,11.93
2023-04-15T00:35:41.477Z,11.65
2023-04-15T00:38:08.313Z,11.75
2023-04-15T00:40:35.525Z,11.92
2023-04-15T00:43:02.579Z,11.73
2023-04-15T00:45:29.473Z,11.77
2023-04-15T00:47:56.713Z,12.21
2023-04-15T00:50:23.430Z,12.06
2023-04-15T00:52:50.032Z,12.01
2023-04-15T00:55:16.797Z,11.77
2023-04-15T00:57:44.596Z,11.03
2023-04-15T01:00:12.145Z,10.98
2023-04-15T01:02:39.496Z,10.51
2023-04-15T01:05:07.614Z,11.04
2023-04-15T01:07:34.318Z,11.22
2023-04-15T01:10:01.134Z,11.47
2023-04-15T01:12:28.196Z,11.13
2023-04-15T01:14:56.208Z,11.10
2023-04-15T01:17:24.515Z,10.99
2023-04-15T01:19:52.336Z,11.27
2023-04-15T01:22:19.737Z,10.98
2023-04-15T01:25:06.219Z,11.65
2023-04-15T01:27:35.387Z,11.61
2023-04-15T01:30:05.261Z,12.03
2023-04-15T01:32:31.959Z,11.79
2023-04-15T01:34:58.613Z,11.94
2023-04-15T01:37:26.085Z,12.12
2023-04-15T01:39:52.694Z,12.55
2023-04-15T01:42:19.334Z,12.57
2023-04-15T01:44:46.300Z,12.57
2023-04-15T01:47:14.198Z,11.78
2023-04-15T01:49:41.020Z,12.39
2023-04-15T01:52:08.290Z,12.49
2023-04-15T01:54:35.643Z,12.48
2023-04-15T01:57:02.408Z,12.32
2023-04-15T01:59:29.089Z,12.21
2023-04-15T02:01:56.177Z,12.38
2023-04-15T02:04:22.883Z,12.53
2023-04-15T02:06:49.456Z,12.36
2023-04-15T02:09:16.097Z,12.71
2023-04-15T02:11:42.900Z,12.28
2023-04-15T02:14:09.526Z,12.06
2023-04-15T02:16:36.614Z,12.37
2023-04-15T02:19:03.845Z,12.03
2023-04-15T02:21:30.693Z,12.32
2023-04-15T02:23:57.566Z,12.57
2023-04-15T02:26:25.317Z,12.77
2023-04-15T02:28:51.900Z,11.99
2023-04-15T02:31:18.602Z,11.84
2023-04-15T02:33:45.540Z,12.23
2023-04-15T02:36:12.508Z,12.16
2023-04-15T02:38:41.293Z,11.68
2023-04-15T02:41:08.585Z,11.72
2023-04-15T02:43:35.530Z,12.14
2023-04-15T02:46:02.403Z,11.98
2023-04-15T02:48:29.180Z,11.67
2023-04-15T02:51:11.766Z,10.98
2023-04-15T02:53:38.342Z,10.84
2023-04-15T02:56:06.161Z,10.09
2023-04-15T02:58:32.768Z,11.13
2023-04-15T03:00:59.378Z,11.63
2023-04-15T03:03:28.151Z,11.33
2023-04-15T03:05:54.837Z,11.83
2023-04-15T03:08:21.404Z,11.43
2023-04-15T03:10:49.303Z,11.56
2023-04-15T03:13:15.929Z,11.50
2023-04-15T03:15:42.523Z,11.48
2023-04-15T03:18:09.163Z,11.82
2023-04-15T03:20:36.513Z,11.20
2023-04-15T03:23:03.238Z,10.86
2023-04-15T03:25:29.824Z,11.61
2023-04-15T03:27:56.814Z,12.17
2023-04-15T03:30:23.436Z,12.23
2023-04-15T03:32:50.019Z,11.83
2023-04-15T03:35:17.119Z,12.35
2023-04-15T03:37:43.781Z,11.48
2023-04-15T03:40:10.851Z,12.45
2023-04-15T03:42:37.442Z,11.58
2023-04-15T03:45:04.368Z,10.74
2023-04-15T03:47:31.071Z,11.58
2023-04-15T03:49:57.690Z,11.03
2023-04-15T03:52:24.339Z,10.04
2023-04-15T03:54:51.462Z,10.65
2023-04-15T03:57:18.049Z,11.35
2023-04-15T03:59:44.631Z,11.32
2023-04-15T04:02:11.686Z,11.58
2023-04-15T04:04:38.441Z,10.76
2023-04-15T04:07:05.158Z,11.25
2023-04-15T04:09:31.761Z,10.99
2023-04-15T04:11:58.578Z,10.84
2023-04-15T04:14:29.489Z,10.13
2023-04-15T04:16:57.407Z,10.69
2023-04-15T04:19:24.021Z,11.57
2023-04-15T04:21:51.091Z,11.33
2023-04-15T04:24:17.762Z,10.92
2023-04-15T04:26:44.429Z,11.66
2023-04-15T04:29:11.079Z,11.14
2023-04-15T04:31:37.733Z,10.86
2023-04-15T04:34:04.307Z,11.08
2023-04-15T04:36:30.879Z,11.01
2023-04-15T04:38:57.626Z,11.50
2023-04-15T04:41:24.261Z,11.36
2023-04-15T04:43:50.912Z,11.50
2023-04-15T04:46:17.564Z,11.08
2023-04-15T04:48:46.624Z,10.49
2023-04-15T04:51:13.842Z,11.64
2023-04-15T04:53:40.723Z,11.92
2023-04-15T04:56:07.438Z,12.32
2023-04-15T04:58:34.100Z,11.93
2023-04-15T05:01:00.908Z,12.13
2023-04-15T05:03:27.702Z,11.91
2023-04-15T05:05:54.748Z,11.94
2023-04-15T05:08:21.467Z,12.39
2023-04-15T05:10:48.338Z,12.31
2023-04-15T05:13:14.902Z,11.90
2023-04-15T05:15:43.278Z,10.84
2023-04-15T05:18:09.885Z,10.99
2023-04-15T05:20:36.693Z,11.07
2023-04-15T05:23:03.282Z,11.22
2023-04-15T05:25:29.926Z,12.19
2023-04-15T05:27:56.556Z,12.66
2023-04-15T05:30:23.156Z,13.03
2023-04-15T05:32:50.192Z,13.06
2023-04-15T05:35:17.531Z,13.04
2023-04-15T05:37:44.128Z,12.45
2023-04-15T05:40:11.067Z,12.01
2023-04-15T05:42:37.700Z,12.30
2023-04-15T05:45:09.004Z,12.38
2023-04-15T05:47:37.455Z,11.82
2023-04-15T05:50:04.861Z,11.94
2023-04-15T05:52:31.782Z,12.37
2023-04-15T05:54:58.889Z,12.74
2023-04-15T05:57:25.678Z,12.35
2023-04-15T05:59:52.833Z,12.24
2023-04-15T06:02:19.719Z,13.15
2023-04-15T06:04:46.475Z,13.48
2023-04-15T06:07:13.043Z,13.07
2023-04-15T06:09:39.703Z,13.65
2023-04-15T06:12:06.902Z,13.17
2023-04-15T06:14:33.481Z,13.49
2023-04-15T06:17:00.145Z,14.05
2023-04-15T06:19:26.702Z,13.65
2023-04-15T06:21:53.986Z,14.02
2023-04-15T06:24:20.824Z,14.06
2023-04-15T06:26:47.469Z,14.26
2023-04-15T06:29:14.316Z,14.08
2023-04-15T06:31:41.862Z,15.19
2023-04-15T06:34:08.539Z,16.52
2023-04-15T06:36:35.155Z,17.71
2023-04-15T06:39:02.838Z,18.02
2023-04-15T06:41:29.777Z,17.19
2023-04-15T06:44:02.869Z,16.75
2023-04-15T06:46:29.498Z,15.61
2023-04-15T06:48:56.171Z,14.78
2023-04-15T06:51:26.117Z,15.03
2023-04-15T06:53:53.329Z,14.17
2023-04-15T06:56:19.998Z,14.91
2023-04-15T06:58:47.168Z,14.90
2023-04-15T07:01:14.373Z,14.72
2023-04-15T07:03:41.949Z,14.76
2023-04-15T07:06:09.528Z,14.67
2023-04-15T07:08:36.770Z,14.85
2023-04-15T07:11:03.371Z,15.22
2023-04-15T07:13:32.455Z,15.36
2023-04-15T07:15:59.871Z,15.56
2023-04-15T07:18:26.506Z,14.90
2023-04-15T07:20:53.097Z,15.09
2023-04-15T07:23:19.734Z,15.19
2023-04-15T07:25:46.299Z,14.74
2023-04-15T07:28:13.078Z,14.90
2023-04-15T07:30:39.757Z,14.58
2023-04-15T07:33:06.966Z,15.22
2023-04-15T07:35:33.597Z,15.18
2023-04-15T07:38:00.189Z,15.40
2023-04-15T07:40:28.200Z,16.62
2023-04-15T07:42:57.235Z,15.54
2023-04-15T07:45:24.147Z,15.49
2023-04-15T07:47:53.589Z,15.73
2023-04-15T07:50:20.206Z,14.15
2023-04-15T07:52:47.053Z,13.55
2023-04-15T07:55:13.739Z,13.55
2023-04-15T07:57:40.333Z,12.67
2023-04-15T08:00:07.956Z,11.80
2023-04-15T08:02:36.908Z,10.58
2023-04-15T08:05:05.268Z,10.07
2023-04-15T08:07:32.580Z,10.03
2023-04-15T08:09:59.175Z,9.96
2023-04-15T08:12:25.921Z,9.94
2023-04-15T08:14:52.572Z,9.61
2023-04-15T08:17:19.189Z,10.01
2023-04-15T08:19:46.054Z,9.81
2023-04-15T08:22:17.720Z,9.77
2023-04-15T08:24:45.802Z,8.93
2023-04-15T08:27:12.732Z,8.64
2023-04-15T08:29:40.663Z,8.39
2023-04-15T08:32:07.859Z,9.54
2023-04-15T08:34:35.027Z,8.57
2023-04-15T08:37:01.681Z,7.87
2023-04-15T08:39:28.365Z,7.57
2023-04-15T08:42:02.550Z,7.94
2023-04-15T08:44:32.081Z,7.56
2023-04-15T08:47:02.946Z,7.62
2023-04-15T08:49:30.488Z,7.47
2023-04-15T08:52:00.380Z,7.55
2023-04-15T08:54:28.567Z,7.31
2023-04-15T08:56:58.541Z,7.69
2023-04-15T08:59:25.771Z,7.65
2023-04-15T09:01:53.208Z,8.22
2023-04-15T09:04:19.935Z,8.23
2023-04-15T09:06:47.178Z,8.55
2023-04-15T09:09:14.610Z,8.12
2023-04-15T09:11:42.442Z,8.18
2023-04-15T09:14:09.073Z,7.44
2023-04-15T09:16:56.967Z,7.10
2023-04-15T09:19:25.063Z,7.02
2023-04-15T09:21:57.322Z,6.86
2023-04-15T09:24:27.131Z,6.80
2023-04-15T09:26:56.036Z,6.55
2023-04-15T09:29:26.769Z,6.56
2023-04-15T09:31:53.402Z,6.25
2023-04-15T09:34:21.220Z,6.39
2023-04-15T09:36:49.230Z,5.96
2023-04-15T09:39:17.186Z,6.45
2023-04-15T09:41:44.619Z,6.14
2023-04-15T09:44:27.287Z,6.49
2023-04-15T09:46:53.979Z,6.37
2023-04-15T09:49:21.032Z,6.58
2023-04-15T09:52:01.478Z,6.89
2023-04-15T09:54:36.440Z,6.76
2023-04-15T09:57:08.512Z,6.88
2023-04-15T09:59:35.602Z,5.74
2023-04-15T10:02:05.757Z,5.00
2023-04-15T10:04:36.684Z,5.26
2023-04-15T10:07:05.262Z,5.33
2023-04-15T10:09:33.652Z,7.38
2023-04-15T10:12:01.196Z,7.29
2023-04-15T10:14:32.314Z,7.05
2023-04-15T10:17:02.145Z,6.35
2023-04-15T10:19:33.185Z,5.29
2023-04-15T10:22:00.434Z,4.54
2023-04-15T10:24:28.485Z,4.75
2023-04-15T10:26:55.585Z,4.76
2023-04-15T10:29:26.750Z,5.19
2023-04-15T10:31:56.389Z,5.04
2023-04-15T10:34:27.467Z,5.01
2023-04-15T10:37:01.561Z,5.35
2023-04-15T10:39:34.171Z,5.64
2023-04-15T10:42:15.884Z,5.84
2023-04-15T10:44:49.716Z,5.50
2023-04-15T10:47:19.551Z,5.02
2023-04-15T10:49:52.440Z,4.95
2023-04-15T10:52:24.522Z,4.80
2023-04-15T10:55:03.584Z,4.79
2023-04-15T10:57:37.589Z,4.96
2023-04-15T11:00:12.911Z,5.01
2023-04-15T11:02:40.238Z,5.13
2023-04-15T11:05:07.649Z,4.57
2023-04-15T11:07:35.852Z,4.84
2023-04-15T11:10:03.220Z,4.52
2023-04-15T11:12:36.773Z,4.28
2023-04-15T11:15:32.834Z,4.21
2023-04-15T11:18:15.019Z,4.10
2023-04-15T11:20:47.391Z,3.98
2023-04-15T11:23:34.421Z,3.81
2023-04-15T11:26:05.487Z,3.85
2023-04-15T11:28:33.126Z,4.02
2023-04-15T11:31:11.325Z,4.06
2023-04-15T11:33:55.148Z,4.22
2023-04-15T11:36:27.102Z,4.53
2023-04-15T11:38:53.950Z,5.08
2023-04-15T11:41:22.367Z,4.74
2023-04-15T11:43:50.425Z,4.68
2023-04-15T11:46:17.813Z,4.42
2023-04-15T11:48:46.768Z,4.22
2023-04-15T11:51:14.477Z,4.45
2023-04-15T11:53:49.736Z,3.94
2023-04-15T11:56:21.039Z,4.19
2023-04-15T11:58:50.696Z,4.24
2023-04-15T12:01:17.689Z,3.80
2023-04-15T12:03:49.315Z,3.77
2023-04-15T12:06:24.447Z,4.33
2023-04-15T12:09:04.725Z,4.28
2023-04-15T12:11:34.503Z,4.33
2023-04-15T12:14:28.221Z,3.88
2023-04-15T12:17:04.811Z,3.90
2023-04-15T12:19:36.269Z,3.57
2023-04-15T12:22:15.253Z,3.17
2023-04-15T12:24:46.803Z,2.99
2023-04-15T12:27:15.144Z,2.85
2023-04-15T12:29:45.876Z,3.15
2023-04-15T12:32:16.917Z,3.42
2023-04-15T12:34:49.611Z,3.47
2023-04-15T12:37:16.928Z,3.26
2023-04-15T12:39:45.900Z,3.16
2023-04-15T12:42:14.570Z,3.41
2023-04-15T12:44:41.633Z,3.61
2023-04-15T12:47:09.900Z,3.53
2023-04-15T12:49:37.686Z,3.31
2023-04-15T12:52:04.682Z,3.13
2023-04-15T12:54:32.125Z,3.44
2023-04-15T12:56:59.917Z,3.35
2023-04-15T12:59:26.989Z,3.20
2023-04-15T13:01:54.589Z,2.86
2023-04-15T13:04:22.160Z,2.80
2023-04-15T13:06:49.465Z,2.49
2023-04-15T13:09:16.235Z,2.52
2023-04-15T13:11:43.079Z,2.77
2023-04-15T13:14:13.048Z,2.82
2023-04-15T13:16:40.068Z,3.12
2023-04-15T13:19:07.322Z,3.24
2023-04-15T13:21:35.783Z,3.26
2023-04-15T13:24:03.982Z,3.14
2023-04-15T13:26:31.667Z,3.08
2023-04-15T13:28:58.454Z,3.12
2023-04-15T13:31:25.121Z,3.11
2023-04-15T13:33:51.779Z,2.88
2023-04-15T13:36:18.461Z,2.84
2023-04-15T13:38:45.248Z,2.83
2023-04-15T13:41:11.911Z,3.05
2023-04-15T13:43:38.464Z,3.06
2023-04-15T13:46:05.444Z,2.84
2023-04-15T13:48:32.136Z,2.78
2023-04-15T13:50:58.694Z,2.68
2023-04-15T13:53:27.437Z,2.50
2023-04-15T13:56:09.280Z,2.21
2023-04-15T13:58:37.078Z,2.17
2023-04-15T14:01:06.274Z,2.29
2023-04-15T14:03:48.979Z,2.29
2023-04-15T14:06:15.765Z,2.08
2023-04-15T14:08:42.651Z,2.06
2023-04-15T14:11:09.721Z,2.02
2023-04-15T14:13:36.737Z,2.05
2023-04-15T14:16:03.773Z,2.14
2023-04-15T14:18:30.803Z,2.16
2023-04-15T14:20:57.427Z,2.40
2023-04-15T14:23:24.066Z,2.53
2023-04-15T14:25:52.043Z,2.61
2023-04-15T14:28:18.691Z,2.93
2023-04-15T14:30:45.349Z,2.95
2023-04-15T14:33:15.303Z,3.02
2023-04-15T14:35:41.961Z,2.88
2023-04-15T14:38:11.171Z,2.84
2023-04-15T14:40:38.939Z,3.01
2023-04-15T14:43:05.513Z,2.67
2023-04-15T14:45:32.208Z,2.52
2023-04-15T14:47:59.968Z,2.50
2023-04-15T14:50:26.650Z,2.30
2023-04-15T14:52:53.237Z,2.24
2023-04-15T14:55:20.478Z,2.23
2023-04-15T14:57:55.359Z,1.99
2023-04-15T15:00:22.005Z,1.98
2023-04-15T15:02:48.664Z,2.15
2023-04-15T15:05:16.126Z,2.05
2023-04-15T15:07:42.958Z,1.78
2023-04-15T15:10:10.370Z,1.78
2023-04-15T15:12:36.997Z,1.87
2023-04-15T15:15:12.141Z,1.69
2023-04-15T15:17:39.556Z,1.73
2023-04-15T15:20:06.777Z,1.69
2023-04-15T15:22:33.408Z,1.70
2023-04-15T15:25:02.071Z,1.69
2023-04-15T15:27:28.851Z,2.12
2023-04-15T15:29:56.590Z,2.12
2023-04-15T15:32:23.280Z,2.26
2023-04-15T15:34:49.957Z,2.19
2023-04-15T15:37:19.773Z,1.46
2023-04-15T15:39:46.508Z,1.81
2023-04-15T15:42:13.209Z,1.86
2023-04-15T15:44:41.435Z,1.95
2023-04-15T15:47:11.246Z,1.84
2023-04-15T15:49:37.923Z,1.90
2023-04-15T15:52:05.338Z,1.97
2023-04-15T15:54:32.168Z,1.86
2023-04-15T15:57:00.309Z,1.91
2023-04-15T15:59:27.091Z,1.70
2023-04-15T16:01:56.334Z,1.63
2023-04-15T16:04:23.408Z,1.84
2023-04-15T16:06:50.321Z,2.02
2023-04-15T16:09:17.701Z,1.97
2023-04-15T16:11:45.549Z,2.14
2023-04-15T16:14:13.964Z,2.34
2023-04-15T16:16:40.836Z,2.29
2023-04-15T16:19:07.463Z,2.27
2023-04-15T16:21:34.912Z,2.04
2023-04-15T16:24:02.105Z,2.03
2023-04-15T16:26:28.870Z,1.90
2023-04-15T16:28:55.729Z,1.87
2023-04-15T16:31:22.502Z,1.92
2023-04-15T16:33:49.119Z,1.73
2023-04-15T16:36:15.702Z,1.74
2023-04-15T16:38:42.388Z,1.85
2023-04-15T16:41:09.036Z,1.80
2023-04-15T16:43:35.677Z,1.74
2023-04-15T16:46:02.387Z,1.62
2023-04-15T16:48:29.064Z,1.72
2023-04-15T16:50:56.848Z,1.70
2023-04-15T16:53:23.502Z,1.54
2023-04-15T16:55:50.161Z,1.84
2023-04-15T16:58:16.805Z,1.87
2023-04-15T17:00:43.431Z,1.83
2023-04-15T17:03:10.541Z,1.69
2023-04-15T17:05:37.947Z,1.73
2023-04-15T17:08:05.723Z,1.81
2023-04-15T17:10:32.518Z,1.83
2023-04-15T17:12:59.260Z,1.81
2023-04-15T17:15:27.164Z,1.74
2023-04-15T17:17:54.266Z,1.66
2023-04-15T17:20:20.981Z,1.75
2023-04-15T17:22:48.869Z,2.05
2023-04-15T17:25:15.934Z,1.66
2023-04-15T17:27:42.550Z,1.72
2023-04-15T17:30:09.903Z,1.77
2023-04-15T17:32:37.146Z,1.67
2023-04-15T17:35:06.368Z,1.74
2023-04-15T17:37:34.017Z,1.77
2023-04-15T17:40:00.867Z,1.78
2023-04-15T17:42:27.573Z,1.82
2023-04-15T17:44:54.144Z,1.76
2023-04-15T17:47:20.771Z,1.85
2023-04-15T17:49:47.710Z,1.67
2023-04-15T17:52:14.372Z,1.73
2023-04-15T17:54:41.066Z,1.76
2023-04-15T17:57:07.743Z,1.70
2023-04-15T17:59:34.429Z,1.83
2023-04-15T18:02:01.064Z,1.76
2023-04-15T18:04:28.214Z,1.93
2023-04-15T18:06:55.005Z,1.90
2023-04-15T18:09:21.708Z,1.97
2023-04-15T18:11:48.983Z,2.25
2023-04-15T18:14:23.537Z,1.94
2023-04-15T18:16:57.651Z,1.92
2023-04-15T18:19:25.748Z,1.89
2023-04-15T18:21:52.433Z,1.58
2023-04-15T18:24:19.261Z,1.44
2023-04-15T18:26:48.769Z,1.70
2023-04-15T18:29:15.784Z,1.61
2023-04-15T18:31:43.132Z,1.41
2023-04-15T18:34:09.830Z,1.61
2023-04-15T18:36:36.532Z,1.62
2023-04-15T18:39:04.331Z,1.71
2023-04-15T18:41:31.193Z,1.68
2023-04-15T18:43:57.906Z,1.57
2023-04-15T18:46:24.618Z,1.61
2023-04-15T18:48:51.235Z,1.78
2023-04-15T18:51:17.778Z,1.88
2023-04-15T18:53:44.650Z,1.82
2023-04-15T18:56:11.469Z,1.65
2023-04-15T18:59:08.936Z,1.72
2023-04-15T19:01:24.698Z,1.83
2023-04-15T19:03:51.316Z,1.73
2023-04-15T19:06:17.909Z,1.80
2023-04-15T19:08:44.593Z,1.71
2023-04-15T19:11:11.370Z,1.71
2023-04-15T19:13:37.976Z,1.86
2023-04-15T19:16:04.883Z,1.75
2023-04-15T19:18:31.543Z,1.78
2023-04-15T19:20:58.243Z,1.83
2023-04-15T19:23:25.003Z,1.95
2023-04-15T19:25:51.618Z,1.94
2023-04-15T19:28:18.285Z,1.86
2023-04-15T19:30:44.891Z,1.98
2023-04-15T19:33:12.104Z,1.83
2023-04-15T19:35:40.960Z,2.19
2023-04-15T19:38:07.589Z,2.16
2023-04-15T19:40:34.206Z,1.92
2023-04-15T19:43:01.048Z,1.91
2023-04-15T19:45:27.703Z,1.95
2023-04-15T19:47:54.643Z,1.87
2023-04-15T19:50:25.832Z,1.92
2023-04-15T19:52:52.816Z,2.09
2023-04-15T19:55:19.746Z,1.90
2023-04-15T19:57:46.489Z,2.03
2023-04-15T20:00:13.377Z,1.97
2023-04-15T20:02:40.130Z,2.00
2023-04-15T20:05:09.813Z,2.16
2023-04-15T20:07:36.790Z,2.07
2023-04-15T20:10:03.627Z,1.96
2023-04-15T20:12:49.500Z,2.06
2023-04-15T20:15:19.415Z,2.17
2023-04-15T20:17:46.111Z,2.26
2023-04-15T20:20:12.780Z,2.24
2023-04-15T20:22:39.414Z,2.11
2023-04-15T20:25:06.438Z,2.14
2023-04-15T20:27:33.066Z,2.04
2023-04-15T20:29:59.748Z,2.01
2023-04-15T20:32:28.316Z,2.11
2023-04-15T20:34:55.143Z,2.21
2023-04-15T20:37:22.436Z,2.13
2023-04-15T20:39:49.173Z,2.20
2023-04-15T20:42:15.935Z,2.33
2023-04-15T20:44:42.588Z,2.37
2023-04-15T20:47:09.249Z,2.41
2023-04-15T20:49:37.619Z,2.56
2023-04-15T20:52:06.818Z,2.41
2023-04-15T20:54:33.694Z,2.65
2023-04-15T20:57:01.349Z,2.58
2023-04-15T20:59:28.558Z,2.47
2023-04-15T21:01:56.885Z,2.56
2023-04-15T21:04:24.474Z,2.53
2023-04-15T21:06:52.159Z,2.72
2023-04-15T21:09:18.994Z,2.77
2023-04-15T21:12:00.553Z,2.65
2023-04-15T21:14:28.153Z,2.63
2023-04-15T21:16:54.977Z,2.87
2023-04-15T21:19:21.575Z,2.63
2023-04-15T21:21:48.163Z,2.58
2023-04-15T21:24:14.780Z,2.62
2023-04-15T21:26:41.462Z,2.63
2023-04-15T21:29:10.403Z,2.44
2023-04-15T21:31:38.158Z,2.54
2023-04-15T21:34:05.421Z,2.47
2023-04-15T21:36:32.204Z,2.44
2023-04-15T21:38:58.814Z,2.31
2023-04-15T21:41:26.064Z,2.49
2023-04-15T21:43:53.434Z,2.35
2023-04-15T21:46:23.146Z,2.44
2023-04-15T21:48:50.748Z,2.50
2023-04-15T21:51:17.503Z,2.22
2023-04-15T21:53:44.131Z,2.56
2023-04-15T21:56:10.960Z,2.62
2023-04-15T21:58:37.668Z,2.30
2023-04-15T22:01:04.779Z,2.63
2023-04-15T22:03:33.982Z,2.49
2023-04-15T22:06:02.249Z,2.67
2023-04-15T22:08:29.221Z,2.58
2023-04-15T22:10:56.193Z,2.74
2023-04-15T22:13:22.782Z,2.76
2023-04-15T22:15:49.407Z,2.47
2023-04-15T22:18:16.129Z,2.80
2023-04-15T22:20:42.767Z,2.58
2023-04-15T22:23:09.872Z,2.78
2023-04-15T22:25:37.708Z,2.93
2023-04-15T22:28:07.860Z,2.74
2023-04-15T22:30:41.897Z,2.86
2023-04-15T22:33:09.818Z,2.89
2023-04-15T22:35:37.445Z,3.03
2023-04-15T22:38:05.160Z,2.94
2023-04-15T22:40:31.852Z,2.98
2023-04-15T22:42:59.157Z,2.99
2023-04-15T22:45:25.774Z,3.19
2023-04-15T22:47:52.455Z,3.55
2023-04-15T22:50:19.391Z,4.10
2023-04-15T22:52:47.418Z,4.98
2023-04-15T22:55:14.568Z,5.42
2023-04-15T22:57:41.299Z,5.34
2023-04-15T23:00:08.934Z,5.04
2023-04-15T23:02:35.620Z,4.77
2023-04-15T23:05:02.973Z,4.25
2023-04-15T23:07:32.794Z,3.90
2023-04-15T23:10:01.154Z,3.57
2023-04-15T23:12:27.996Z,3.78
2023-04-15T23:14:54.547Z,3.55
2023-04-15T23:17:21.274Z,3.58
2023-04-15T23:19:47.931Z,3.54
2023-04-15T23:22:14.617Z,3.54
2023-04-15T23:24:41.191Z,3.31
2023-04-15T23:27:07.769Z,3.68
2023-04-15T23:29:34.303Z,3.69
2023-04-15T23:32:00.991Z,3.89
2023-04-15T23:34:27.628Z,3.95
2023-04-15T23:36:54.228Z,4.00
2023-04-15T23:39:21.110Z,4.07
2023-04-15T23:41:47.942Z,3.76
2023-04-15T23:44:14.605Z,3.76
2023-04-15T23:46:41.251Z,4.27
2023-04-15T23:49:08.057Z,4.13
2023-04-15T23:51:34.729Z,4.08
2023-04-15T23:54:01.302Z,4.00
2023-04-15T23:56:27.898Z,4.12
2023-04-15T23:58:54.603Z,3.78
